Time;durP1;ratioP1;P1;durP2;ratioP2;P2;SDS_P1;SDS_P2;PMS_P1;PMS_P2;Temp;Humidity;BMP_temperature;BMP_pressure;BME280_temperature;BME280_humidity;BME280_pressure;Samples;Min_cycle;Max_cycle;Signal;HPM_P1;HPM_P2
2021/07/27 00:00:23;;;;;;;18.75;15.50;;;;;;;21.01;79.05;99696.40;126718;1090;113786;-80
2021/07/27 00:03:20;;;;;;;20.00;16.58;;;;;;;20.99;78.69;99688.55;126936;1090;102907;-80
2021/07/27 00:06:10;;;;;;;19.23;17.23;;;;;;;20.95;78.90;99691.59;126684;1089;114444;-80
2021/07/27 00:08:58;;;;;;;19.47;17.37;;;;;;;20.92;78.64;99686.55;126827;1089;102881;-80
2021/07/27 00:11:45;;;;;;;20.50;17.47;;;;;;;20.88;79.07;99690.44;126791;1088;102879;-80
2021/07/27 00:14:33;;;;;;;20.13;16.10;;;;;;;20.86;79.05;99692.38;126709;1090;114275;-80
2021/07/27 00:17:24;;;;;;;21.60;17.50;;;;;;;20.84;79.06;99694.32;126951;1089;102950;-80
2021/07/27 00:20:14;;;;;;;20.13;17.97;;;;;;;20.82;78.73;99697.06;126728;1089;113135;-80
2021/07/27 00:23:03;;;;;;;18.70;16.70;;;;;;;20.77;78.75;99686.02;126758;1089;103090;-80
2021/07/27 00:25:50;;;;;;;18.80;16.63;;;;;;;20.75;78.76;99683.50;126600;1090;113191;-80
2021/07/27 00:28:38;;;;;;;19.80;16.77;;;;;;;20.76;78.80;99671.09;126818;1089;102851;-80
2021/07/27 00:31:27;;;;;;;;;;;;;;;20.73;79.02;99669.54;126731;1089;113592;-78
2021/07/27 00:34:15;;;;;;;21.73;18.33;;;;;;;20.71;78.87;99679.43;126859;1089;103010;-79
2021/07/27 00:37:03;;;;;;;20.27;17.43;;;;;;;20.69;79.22;99670.77;126468;1089;114459;-79
2021/07/27 00:39:51;;;;;;;19.17;17.10;;;;;;;20.71;78.80;99678.59;126719;1090;102995;-79
2021/07/27 00:42:47;;;;;;;19.63;17.27;;;;;;;20.72;78.86;99680.27;126607;1090;113511;-79
2021/07/27 00:45:34;;;;;;;18.63;16.67;;;;;;;20.73;78.88;99689.90;126584;1089;103089;-79
2021/07/27 00:48:23;;;;;;;21.25;17.15;;;;;;;20.71;78.73;99689.19;126491;1090;113359;-79
2021/07/27 00:51:11;;;;;;;19.17;17.17;;;;;;;20.72;78.67;99689.06;126842;1089;102880;-79
2021/07/27 00:54:00;;;;;;;20.30;17.47;;;;;;;20.69;78.60;99688.48;126585;1090;102891;-79
2021/07/27 00:56:48;;;;;;;19.97;17.07;;;;;;;20.67;78.86;99682.47;126488;1089;114288;-79
2021/07/27 00:59:35;;;;;;;20.60;17.40;;;;;;;20.65;78.96;99677.30;126648;1089;102317;-79
2021/07/27 01:02:24;;;;;;;19.87;16.67;;;;;;;20.65;78.85;99673.81;126468;1088;114339;-79
2021/07/27 01:05:12;;;;;;;19.80;17.63;;;;;;;20.63;78.71;99671.26;126621;1088;102862;-79
2021/07/27 01:08:00;;;;;;;22.23;17.17;;;;;;;20.64;78.86;99672.09;126476;1088;114659;-79
2021/07/27 01:10:49;;;;;;;18.13;16.17;;;;;;;20.62;78.43;99668.73;126918;1088;102978;-79
2021/07/27 01:13:37;;;;;;;21.47;16.43;;;;;;;20.59;78.74;99671.64;126481;1089;114502;-79
2021/07/27 01:16:28;;;;;;;20.50;16.90;;;;;;;20.54;78.78;99664.09;126579;1090;102871;-79
2021/07/27 01:38:11;;;;;;;20.77;17.00;;;;;;;20.49;78.34;99671.58;126521;1089;113328;-79
2021/07/27 01:42:03;;;;;;;21.10;18.07;;;;;;;20.47;78.66;99687.61;126778;1088;102883;-79
2021/07/27 01:44:07;;;;;;;19.58;17.25;;;;;;;20.40;78.61;99690.83;126443;1090;114296;-79
2021/07/27 01:46:56;;;;;;;21.33;17.97;;;;;;;20.30;79.59;99700.51;126647;1090;103074;-79
2021/07/27 01:49:48;;;;;;;19.47;17.37;;;;;;;20.18;79.39;99686.44;126507;1089;114501;-79
2021/07/27 01:52:37;;;;;;;18.70;16.70;;;;;;;20.08;79.46;99675.73;126804;1090;102863;-79
2021/07/27 01:55:32;;;;;;;19.57;17.57;;;;;;;20.03;79.70;99666.49;126499;1089;113428;-78
2021/07/27 01:58:20;;;;;;;18.43;16.53;;;;;;;19.99;79.75;99673.00;126795;1090;103019;-79
2021/07/27 02:01:09;;;;;;;23.00;16.77;;;;;;;20.00;79.66;99672.03;126621;1089;114433;-79
2021/07/27 02:03:57;;;;;;;19.73;16.10;;;;;;;20.00;79.64;99666.74;126713;1089;102959;-79
2021/07/27 02:06:45;;;;;;;19.37;17.27;;;;;;;19.95;79.84;99660.98;126511;1090;114450;-79
2021/07/27 02:09:37;;;;;;;19.33;17.23;;;;;;;19.97;79.98;99665.19;126634;1090;102961;-79
2021/07/27 02:12:30;;;;;;;20.30;18.10;;;;;;;19.98;80.21;99661.58;126658;1090;102949;-79
2021/07/27 02:15:20;;;;;;;20.07;17.97;;;;;;;19.98;80.19;99666.03;126725;1090;103031;-79
2021/07/27 02:18:09;;;;;;;19.10;17.10;;;;;;;19.96;79.89;99666.16;126814;1089;102876;-79
2021/07/27 02:20:59;;;;;;;19.30;17.30;;;;;;;19.92;80.18;99662.88;126558;1090;114430;-79
2021/07/27 02:23:47;;;;;;;22.07;16.57;;;;;;;19.94;80.33;99672.54;126868;1088;102859;-79
2021/07/27 02:26:35;;;;;;;19.90;17.80;;;;;;;19.96;80.29;99665.31;126570;1089;114461;-79
2021/07/27 02:29:23;;;;;;;22.45;18.65;;;;;;;19.99;80.27;99675.65;126613;1090;103108;-79
2021/07/27 02:32:12;;;;;;;19.03;17.00;;;;;;;19.99;80.53;99673.00;126607;1090;113286;-80
2021/07/27 02:35:00;;;;;;;18.90;16.90;;;;;;;19.99;80.32;99675.65;126689;1090;102950;-79
2021/07/27 02:37:47;;;;;;;18.37;16.43;;;;;;;20.00;80.44;99679.98;126538;1090;114414;-79
2021/07/27 02:40:35;;;;;;;18.50;16.50;;;;;;;20.05;80.29;99683.93;126795;1089;102873;-79
2021/07/27 02:43:23;;;;;;;18.47;16.50;;;;;;;20.06;79.87;99682.13;126595;1090;114632;-79
2021/07/27 02:46:11;;;;;;;19.47;17.50;;;;;;;20.07;80.17;99683.80;126591;1090;102876;-78
2021/07/27 02:49:00;;;;;;;19.83;17.50;;;;;;;20.10;80.13;99684.39;126508;1089;113396;-81
2021/07/27 02:51:50;;;;;;;20.37;17.10;;;;;;;20.09;80.08;99688.00;126642;1090;100803;-78
2021/07/27 02:54:38;;;;;;;18.20;16.27;;;;;;;20.10;80.06;99683.55;126639;1090;101731;-79
2021/07/27 02:57:26;;;;;;;20.13;18.03;;;;;;;20.12;80.23;99681.66;126505;1090;114516;-79
2021/07/27 03:00:16;;;;;;;19.73;17.63;;;;;;;20.11;79.99;99680.81;126831;1088;102951;-79
2021/07/27 03:03:04;;;;;;;18.40;16.50;;;;;;;20.13;79.83;99672.74;126537;1090;114617;-79
2021/07/27 03:06:00;;;;;;;19.67;16.93;;;;;;;20.15;79.95;99673.45;126666;1090;100812;-79
2021/07/27 03:11:36;;;;;;;17.70;15.90;;;;;;;20.27;79.91;99661.84;126742;1089;104171;-79
2021/07/27 03:14:26;;;;;;;19.77;17.33;;;;;;;20.34;79.67;99660.40;126557;1089;114621;-79
2021/07/27 03:17:14;;;;;;;18.60;16.60;;;;;;;20.38;79.11;99661.83;126594;1090;102850;-80
2021/07/27 03:20:06;;;;;;;23.37;16.87;;;;;;;20.43;79.57;99664.12;126616;1090;114434;-79
2021/07/27 03:22:56;;;;;;;17.93;16.03;;;;;;;20.48;79.18;99662.80;126632;1090;102950;-79
2021/07/27 03:25:43;;;;;;;18.57;16.57;;;;;;;20.57;78.99;99660.34;126505;1090;113494;-78
2021/07/27 03:28:31;;;;;;;18.40;16.50;;;;;;;20.59;78.61;99663.70;126724;1090;102856;-78
2021/07/27 03:31:21;;;;;;;19.23;17.23;;;;;;;20.63;78.59;99651.88;126457;1090;114464;-78
2021/07/27 03:34:09;;;;;;;17.63;15.73;;;;;;;20.68;78.60;99662.95;126789;1089;102958;-79
2021/07/27 03:36:56;;;;;;;18.90;16.80;;;;;;;20.69;78.34;99654.88;126639;1090;102950;-79
2021/07/27 03:39:47;;;;;;;18.43;16.50;;;;;;;20.74;78.81;99650.02;126521;1089;114229;-79
2021/07/27 03:42:35;;;;;;;18.30;16.33;;;;;;;20.81;78.32;99655.63;126628;1089;102958;-79
2021/07/27 03:45:23;;;;;;;17.73;15.00;;;;;;;20.85;78.37;99657.08;126473;1090;114551;-79
2021/07/27 03:48:14;;;;;;;17.57;15.87;;;;;;;20.90;78.21;99654.88;126658;1090;102966;-79
2021/07/27 03:51:02;;;;;;;17.43;15.63;;;;;;;20.98;78.04;99655.05;126543;1089;114549;-79
2021/07/27 03:53:49;;;;;;;19.47;17.33;;;;;;;21.06;78.05;99657.08;126573;1088;102908;-79
2021/07/27 03:56:40;;;;;;;;;;;;;;;21.14;77.67;99659.91;126608;1088;114783;-79
2021/07/27 03:59:33;;;;;;;19.63;15.90;;;;;;;21.20;77.65;99672.66;126800;1090;103103;-79
2021/07/27 04:02:20;;;;;;;19.50;16.90;;;;;;;21.26;77.35;99668.66;126545;1090;114295;-79
2021/07/27 04:05:08;;;;;;;19.50;17.43;;;;;;;21.32;77.38;99663.66;126589;1090;104674;-79
2021/07/27 04:07:56;;;;;;;18.10;16.17;;;;;;;21.39;77.09;99666.64;126686;1090;113614;-79
2021/07/27 04:10:43;;;;;;;;;;;;;;;21.46;76.72;99665.13;126827;1089;103010;-78
2021/07/27 04:13:32;;;;;;;19.47;17.47;;;;;;;21.50;76.26;99661.23;126527;1090;102881;-78
2021/07/27 04:16:20;;;;;;;20.93;16.90;;;;;;;21.51;76.09;99657.61;126674;1088;102852;-79
2021/07/27 04:19:08;;;;;;;20.87;17.47;;;;;;;21.57;76.00;99666.87;126598;1089;102951;-79
2021/07/27 04:21:56;;;;;;;18.60;15.80;;;;;;;21.57;75.68;99672.17;126613;1090;114452;-79
2021/07/27 04:24:44;;;;;;;18.70;16.57;;;;;;;21.60;75.95;99662.13;126594;1088;102871;-80
2021/07/27 04:27:32;;;;;;;19.50;17.07;;;;;;;21.69;76.40;99666.62;126552;1090;114327;-80
2021/07/27 04:30:20;;;;;;;19.83;17.13;;;;;;;21.70;75.32;99665.64;126785;1090;101810;-79
2021/07/27 04:33:08;;;;;;;24.63;17.63;;;;;;;21.73;75.48;99658.41;126517;1090;114327;-79
2021/07/27 04:35:56;;;;;;;19.65;17.75;;;;;;;21.76;75.41;99663.45;126614;1090;102911;-78
2021/07/27 04:38:44;;;;;;;20.57;18.40;;;;;;;21.75;75.35;99664.42;126560;1090;113231;-79
2021/07/27 04:41:36;;;;;;;18.03;16.10;;;;;;;21.78;75.11;99669.45;126746;1089;102879;-79
2021/07/27 04:44:25;;;;;;;19.13;16.80;;;;;;;21.81;75.05;99661.22;126527;1090;114666;-79
2021/07/27 04:47:13;;;;;;;19.47;17.37;;;;;;;21.87;75.36;99661.50;126608;1090;102995;-79
2021/07/27 04:50:06;;;;;;;19.90;17.90;;;;;;;21.98;75.08;99668.53;126489;1089;114445;-79
2021/07/27 04:52:59;;;;;;;17.73;15.83;;;;;;;22.07;74.99;99661.59;126534;1090;103133;-79
2021/07/27 04:55:48;;;;;;;19.40;17.40;;;;;;;22.20;74.34;99654.20;126666;1089;113702;-79
2021/07/27 04:58:36;;;;;;;20.27;16.87;;;;;;;22.29;74.75;99651.58;126648;1090;102973;-79
2021/07/27 05:01:24;;;;;;;19.53;16.03;;;;;;;22.44;73.81;99652.02;126834;1090;102911;-80
2021/07/27 05:04:12;;;;;;;17.87;16.07;;;;;;;22.55;73.90;99662.48;126643;1089;114127;-78
2021/07/27 05:07:03;;;;;;;17.73;15.93;;;;;;;22.73;73.92;99646.67;126534;1089;103447;-78
2021/07/27 05:09:51;;;;;;;17.87;15.73;;;;;;;23.01;72.78;99645.00;126712;1089;114440;-78
2021/07/27 05:12:39;;;;;;;17.70;16.00;;;;;;;23.30;72.47;99628.94;126615;1090;102876;-78
2021/07/27 05:15:26;;;;;;;17.93;16.03;;;;;;;23.51;71.98;99629.55;126522;1089;113206;-80
2021/07/27 05:18:15;;;;;;;19.87;17.77;;;;;;;23.69;71.30;99626.97;126662;1088;102917;-79
2021/07/27 05:21:03;;;;;;;18.10;16.20;;;;;;;23.89;70.91;99638.38;126539;1089;114514;-79
2021/07/27 05:23:51;;;;;;;22.00;16.97;;;;;;;24.03;71.23;99637.85;126663;1090;102860;-80
2021/07/27 05:26:39;;;;;;;17.20;15.40;;;;;;;24.29;70.66;99637.17;126579;1088;114301;-80
2021/07/27 05:29:26;;;;;;;17.07;15.47;;;;;;;24.84;70.37;99637.81;126701;1090;102964;-80
2021/07/27 05:32:14;;;;;;;16.87;15.20;;;;;;;25.97;69.27;99633.28;126645;1089;113551;-80
2021/07/27 05:35:02;;;;;;;14.83;13.33;;;;;;;27.44;66.76;99626.94;126659;1090;102871;-78
2021/07/27 05:37:50;;;;;;;13.80;12.53;;;;;;;29.04;64.42;99632.52;126720;1090;114608;-79
2021/07/27 05:40:38;;;;;;;17.10;14.27;;;;;;;30.54;60.79;99639.21;126682;1089;102945;-79
2021/07/27 05:43:26;;;;;;;16.53;12.07;;;;;;;31.82;57.83;99630.83;126590;1088;102983;-79
2021/07/27 05:46:14;;;;;;;13.53;12.13;;;;;;;32.85;55.05;99631.46;126575;1090;114218;-79
2021/07/27 05:49:04;;;;;;;13.95;11.70;;;;;;;33.93;53.65;99639.98;126733;1089;102943;-79
2021/07/27 05:51:54;;;;;;;12.97;11.67;;;;;;;34.64;49.78;99661.44;126549;1088;113193;-79
2021/07/27 05:54:46;;;;;;;14.53;12.90;;;;;;;34.93;47.64;99676.27;126681;1090;102980;-79
2021/07/27 05:57:34;;;;;;;16.47;11.67;;;;;;;35.10;46.51;99674.66;126546;1090;114458;-80
2021/07/27 06:00:22;;;;;;;14.07;12.63;;;;;;;35.25;45.72;99677.02;126646;1090;100821;-80
2021/07/27 06:03:12;;;;;;;18.27;13.03;;;;;;;35.57;44.43;99682.36;126551;1090;114241;-80
2021/07/27 06:06:00;;;;;;;12.17;10.87;;;;;;;35.70;44.29;99676.77;126766;1089;103065;-79
2021/07/27 06:08:47;;;;;;;12.33;11.07;;;;;;;35.95;43.70;99663.98;126607;1090;113475;-79
2021/07/27 06:11:37;;;;;;;12.80;11.13;;;;;;;36.19;43.58;99674.94;126692;1090;102877;-79
2021/07/27 06:14:25;;;;;;;14.80;12.03;;;;;;;36.42;41.92;99680.47;126467;1088;114617;-79
2021/07/27 06:17:13;;;;;;;12.00;10.77;;;;;;;36.58;41.28;99687.97;126670;1090;102865;-79
2021/07/27 06:20:02;;;;;;;11.30;10.17;;;;;;;36.94;40.66;99688.89;126495;1090;114429;-79
2021/07/27 06:22:50;;;;;;;12.17;10.03;;;;;;;37.19;39.86;99694.96;126629;1089;102867;-79
2021/07/27 06:25:38;;;;;;;13.83;10.93;;;;;;;37.08;39.24;99686.78;126654;1089;103001;-79
2021/07/27 06:28:26;;;;;;;13.37;10.33;;;;;;;37.47;39.53;99690.70;126537;1090;114226;-79
2021/07/27 06:31:14;;;;;;;11.83;10.13;;;;;;;37.85;38.08;99687.47;126869;1090;102858;-79
2021/07/27 06:34:02;;;;;;;14.30;10.85;;;;;;;38.19;37.32;99682.18;126517;1089;114885;-79
2021/07/27 06:36:50;;;;;;;11.17;9.90;;;;;;;38.36;37.36;99683.05;126731;1090;103083;-79
2021/07/27 06:39:39;;;;;;;11.10;9.97;;;;;;;39.15;36.93;99688.55;126563;1090;113267;-79
2021/07/27 06:42:27;;;;;;;11.20;9.83;;;;;;;39.44;35.60;99690.05;126808;1089;101769;-80
2021/07/27 06:45:16;;;;;;;10.83;9.73;;;;;;;39.42;35.16;99692.20;126503;1090;113050;-80
2021/07/27 06:48:04;;;;;;;10.37;9.37;;;;;;;39.11;34.68;99695.55;126801;1089;102913;-79
2021/07/27 06:50:52;;;;;;;11.50;10.00;;;;;;;38.40;35.10;99701.38;126669;1090;113088;-79
2021/07/27 06:53:42;;;;;;;11.90;10.70;;;;;;;37.40;35.27;99723.48;126693;1090;101559;-79
2021/07/27 06:56:30;;;;;;;12.67;11.37;;;;;;;35.86;36.56;99727.75;126645;1090;114450;-80
2021/07/27 06:59:18;;;;;;;12.57;11.10;;;;;;;34.50;37.77;99730.31;126659;1090;102856;-80
2021/07/27 07:02:07;;;;;;;13.30;11.90;;;;;;;33.65;39.67;99727.66;126565;1090;113395;-80
2021/07/27 07:04:55;;;;;;;14.27;12.77;;;;;;;33.00;40.88;99732.03;126657;1090;102848;-79
2021/07/27 07:07:44;;;;;;;13.17;11.67;;;;;;;33.35;41.49;99743.50;126806;1090;104983;-80
2021/07/27 07:10:32;;;;;;;15.70;14.03;;;;;;;33.98;40.39;99740.30;126537;1090;114458;-79
2021/07/27 07:13:20;;;;;;;15.07;13.57;;;;;;;33.91;40.31;99742.17;126574;1090;103026;-79
2021/07/27 07:16:09;;;;;;;15.13;13.63;;;;;;;33.42;40.86;99751.63;126548;1090;113445;-79
2021/07/27 07:18:57;;;;;;;15.37;13.77;;;;;;;33.33;41.15;99744.75;126726;1090;103332;-79
2021/07/27 07:21:45;;;;;;;16.67;14.97;;;;;;;33.47;41.09;99740.17;126464;1090;113537;-79
2021/07/27 07:24:33;;;;;;;14.93;13.43;;;;;;;34.08;41.02;99740.66;126612;1090;102716;-79
2021/07/27 07:27:21;;;;;;;15.27;13.67;;;;;;;34.73;39.84;99737.86;126632;1089;114392;-80
2021/07/27 07:30:09;;;;;;;15.20;13.73;;;;;;;35.34;39.51;99729.89;126771;1089;102891;-80
2021/07/27 07:32:57;;;;;;;15.40;13.80;;;;;;;35.42;38.77;99737.78;126700;1090;113351;-80
2021/07/27 07:35:45;;;;;;;16.00;14.43;;;;;;;35.85;38.41;99730.69;126668;1089;102889;-80
2021/07/27 07:38:32;;;;;;;16.03;13.97;;;;;;;35.83;38.05;99733.59;126503;1090;113394;-80
2021/07/27 07:41:21;;;;;;;15.53;13.90;;;;;;;35.02;38.43;99747.29;126723;1088;102768;-80
2021/07/27 07:44:09;;;;;;;16.57;15.07;;;;;;;33.98;38.91;99750.29;126645;1089;113756;-80
2021/07/27 07:46:58;;;;;;;16.43;14.73;;;;;;;32.77;40.29;99761.28;126685;1089;102901;-80
2021/07/27 07:49:46;;;;;;;17.17;15.37;;;;;;;31.77;41.87;99761.86;126779;1089;102956;-79
2021/07/27 07:52:34;;;;;;;18.27;16.47;;;;;;;30.97;43.12;99771.14;126669;1089;114154;-79
2021/07/27 07:55:22;;;;;;;19.57;17.57;;;;;;;30.03;44.11;99768.34;126593;1090;102966;-80
2021/07/27 07:58:10;;;;;;;20.17;18.20;;;;;;;29.04;46.18;99782.87;126558;1088;114410;-79
2021/07/27 08:00:59;;;;;;;19.93;18.10;;;;;;;28.21;47.22;99801.41;126632;1090;102860;-79
2021/07/27 08:03:47;;;;;;;22.33;18.60;;;;;;;27.42;49.58;99802.20;126721;1090;113235;-79
2021/07/27 08:06:35;;;;;;;22.47;20.13;;;;;;;26.84;50.62;99812.00;126583;1089;103012;-79
2021/07/27 08:09:23;;;;;;;22.47;20.10;;;;;;;26.32;52.11;99811.30;126725;1089;114420;-79
2021/07/27 08:12:13;;;;;;;19.63;17.60;;;;;;;25.86;53.20;99798.23;126666;1089;102887;-79
2021/07/27 08:15:01;;;;;;;21.93;19.63;;;;;;;25.41;54.70;99795.71;126569;1090;114838;-79
2021/07/27 08:17:48;;;;;;;20.83;18.57;;;;;;;24.99;55.86;99782.16;126659;1089;102948;-79
2021/07/27 08:20:36;;;;;;;22.53;19.03;;;;;;;24.70;56.59;99772.53;126527;1088;114411;-80
2021/07/27 08:23:23;;;;;;;23.17;18.23;;;;;;;24.49;57.01;99769.31;126721;1090;102654;-80
2021/07/27 08:26:12;;;;;;;22.77;18.23;;;;;;;24.31;58.93;99763.95;126682;1089;102756;-80
2021/07/27 08:28:59;;;;;;;19.57;17.57;;;;;;;24.16;59.42;99748.56;126662;1089;103007;-80
2021/07/27 08:31:49;;;;;;;19.83;17.73;;;;;;;24.05;59.88;99734.44;126715;1089;102894;-80
2021/07/27 08:34:41;;;;;;;18.40;16.50;;;;;;;23.96;60.31;99739.83;126703;1089;114287;-80
2021/07/27 08:37:29;;;;;;;19.93;17.03;;;;;;;23.91;60.85;99737.61;126828;1090;102657;-80
2021/07/27 08:40:19;;;;;;;24.10;19.57;;;;;;;23.88;60.89;99737.91;126749;1090;114299;-80
2021/07/27 08:43:09;;;;;;;19.20;16.53;;;;;;;23.85;61.28;99740.84;126692;1090;102892;-80
2021/07/27 08:45:57;;;;;;;19.00;16.57;;;;;;;23.85;61.98;99735.52;126594;1090;114764;-80
2021/07/27 08:48:46;;;;;;;18.27;16.37;;;;;;;23.85;62.08;99732.85;126627;1090;103182;-80
2021/07/27 08:51:34;;;;;;;18.77;16.87;;;;;;;23.91;62.16;99737.61;126581;1089;113533;-80
2021/07/27 08:54:22;;;;;;;17.73;15.73;;;;;;;24.01;62.71;99746.38;126733;1088;102747;-80
2021/07/27 08:57:14;;;;;;;17.63;15.43;;;;;;;24.10;62.76;99745.52;126578;1090;114710;-80
2021/07/27 09:00:01;;;;;;;19.03;16.50;;;;;;;24.25;62.89;99758.34;126652;1089;102909;-80
2021/07/27 09:02:49;;;;;;;17.63;15.83;;;;;;;24.30;62.62;99758.77;126603;1090;114729;-80
2021/07/27 09:05:37;;;;;;;20.87;18.67;;;;;;;24.33;63.00;99767.30;126683;1089;103009;-80
2021/07/27 09:08:29;;;;;;;19.85;17.90;;;;;;;24.35;62.80;99757.32;126770;1090;102917;-80
2021/07/27 09:11:17;;;;;;;18.57;16.67;;;;;;;24.48;63.10;99764.97;126791;1090;114186;-79
2021/07/27 09:14:05;;;;;;;22.00;17.67;;;;;;;24.81;62.67;99760.81;126740;1090;103000;-80
2021/07/27 09:16:56;;;;;;;23.03;20.60;;;;;;;25.29;63.14;99749.73;126612;1090;114353;-80
2021/07/27 09:19:43;;;;;;;19.17;17.13;;;;;;;25.78;62.11;99743.91;126691;1089;102932;-80
2021/07/27 09:22:31;;;;;;;17.23;14.43;;;;;;;26.41;60.99;99757.75;126527;1089;114464;-80
2021/07/27 09:25:25;;;;;;;17.30;15.50;;;;;;;26.80;60.15;99757.98;126699;1090;102877;-80
2021/07/27 09:28:13;;;;;;;15.90;14.40;;;;;;;27.07;59.31;99761.38;126613;1088;114557;-80
2021/07/27 09:31:02;;;;;;;18.43;16.37;;;;;;;27.26;59.27;99762.88;126646;1089;103059;-80
2021/07/27 09:33:50;;;;;;;16.73;14.90;;;;;;;27.51;58.56;99753.83;126591;1090;114406;-80
2021/07/27 09:36:39;;;;;;;16.73;14.93;;;;;;;27.87;58.26;99766.84;126810;1090;102859;-80
2021/07/27 09:39:28;;;;;;;16.53;14.97;;;;;;;28.19;57.38;99773.94;126627;1089;114724;-79
2021/07/27 09:42:16;;;;;;;16.87;15.27;;;;;;;28.25;56.45;99773.23;126637;1088;103594;-79
2021/07/27 09:45:05;;;;;;;16.40;14.80;;;;;;;28.18;55.80;99780.28;126579;1090;113590;-80
2021/07/27 09:47:55;;;;;;;16.10;14.50;;;;;;;28.13;55.40;99779.97;126709;1090;102898;-80
2021/07/27 09:50:48;;;;;;;17.17;15.47;;;;;;;28.05;55.34;99785.38;126658;1089;102916;-80
2021/07/27 09:53:38;;;;;;;15.90;14.30;;;;;;;27.93;55.55;99787.58;126586;1089;114470;-80
2021/07/27 09:56:26;;;;;;;15.77;14.37;;;;;;;27.90;55.71;99788.77;126682;1090;102962;-80
2021/07/27 09:59:17;;;;;;;14.73;13.40;;;;;;;27.85;54.30;99795.66;126478;1088;113526;-80
2021/07/27 10:02:07;;;;;;;14.37;13.07;;;;;;;27.81;54.49;99799.66;126589;1089;100829;-80
2021/07/27 10:04:57;;;;;;;14.90;13.40;;;;;;;27.95;54.48;99804.33;126614;1090;113459;-78
2021/07/27 10:08:04;;;;;;;13.53;12.23;;;;;;;28.39;53.95;99809.25;126650;1090;102843;-79
2021/07/27 10:10:53;;;;;;;13.10;11.77;;;;;;;29.09;53.70;99814.57;126520;1090;114444;-78
2021/07/27 10:13:48;;;;;;;12.80;11.60;;;;;;;29.95;52.84;99819.51;126529;1090;102768;-79
2021/07/27 10:16:37;;;;;;;12.87;11.60;;;;;;;30.78;51.72;99814.84;126588;1090;114641;-79
2021/07/27 10:19:25;;;;;;;12.63;11.33;;;;;;;31.52;49.70;99818.91;126781;1089;102937;-79
2021/07/27 10:22:15;;;;;;;14.20;11.70;;;;;;;31.75;47.94;99817.86;126605;1088;115203;-79
2021/07/27 10:25:12;;;;;;;13.20;11.80;;;;;;;31.91;46.97;99827.51;126765;1089;103018;-79
2021/07/27 10:28:01;;;;;;;13.13;11.83;;;;;;;32.11;46.28;99826.59;126497;1089;114762;-78
2021/07/27 10:30:49;;;;;;;12.17;11.03;;;;;;;32.23;46.03;99809.86;126639;1090;102765;-79
2021/07/27 10:33:37;;;;;;;12.00;10.77;;;;;;;32.74;46.45;99813.83;126525;1090;114603;-79
2021/07/27 10:36:34;;;;;;;11.87;10.67;;;;;;;33.29;44.21;99816.45;126580;1090;103054;-79
2021/07/27 10:39:24;;;;;;;10.80;9.70;;;;;;;33.44;43.26;99824.41;126544;1089;113573;-80
2021/07/27 10:42:12;;;;;;;10.23;9.33;;;;;;;33.50;42.79;99823.56;126592;1090;102801;-79
2021/07/27 10:45:00;;;;;;;9.40;8.60;;;;;;;33.45;42.07;99817.95;126598;1089;102892;-79
2021/07/27 10:47:50;;;;;;;10.00;8.80;;;;;;;33.44;41.75;99814.42;126644;1090;113733;-79
2021/07/27 10:50:39;;;;;;;9.37;8.47;;;;;;;33.50;41.10;99818.98;126608;1088;101729;-78
2021/07/27 10:53:34;;;;;;;9.30;8.40;;;;;;;33.23;41.10;99822.70;126484;1088;114831;-78
2021/07/27 10:56:29;;;;;;;9.23;8.33;;;;;;;33.10;41.24;99814.56;126615;1090;102872;-78
2021/07/27 10:59:20;;;;;;;9.60;8.60;;;;;;;33.18;41.44;99812.48;126547;1090;114252;-79
2021/07/27 11:02:09;;;;;;;9.27;8.13;;;;;;;33.21;40.99;99808.53;126708;1090;102975;-79
2021/07/27 11:04:57;;;;;;;8.10;7.30;;;;;;;33.16;40.78;99813.73;126585;1090;114235;-79
2021/07/27 11:07:46;;;;;;;9.50;8.07;;;;;;;33.27;40.30;99816.66;126683;1089;102970;-79
2021/07/27 11:10:33;;;;;;;8.73;7.80;;;;;;;33.39;41.08;99822.30;126667;1090;113226;-79
2021/07/27 11:13:21;;;;;;;9.27;7.97;;;;;;;33.39;40.31;99814.19;126690;1090;102956;-79
2021/07/27 11:16:09;;;;;;;9.57;8.57;;;;;;;33.12;40.93;99820.59;126562;1090;114600;-79
2021/07/27 11:18:57;;;;;;;11.97;8.77;;;;;;;33.14;41.05;99818.52;126738;1089;102760;-79
2021/07/27 11:21:45;;;;;;;10.57;9.47;;;;;;;32.96;40.91;99825.34;126538;1090;114381;-80
2021/07/27 11:24:32;;;;;;;9.47;8.53;;;;;;;32.92;41.16;99815.16;126618;1090;103034;-79
2021/07/27 11:27:31;;;;;;;9.60;8.27;;;;;;;32.80;40.86;99814.05;126626;1089;102953;-79
2021/07/27 11:30:34;;;;;;;9.47;8.57;;;;;;;32.81;41.34;99808.47;126731;1090;102654;-79
2021/07/27 11:33:23;;;;;;;8.77;7.90;;;;;;;33.04;41.12;99810.83;126679;1088;102859;-79
2021/07/27 11:36:20;;;;;;;9.17;8.27;;;;;;;33.10;39.57;99812.70;126681;1090;114019;-79
2021/07/27 11:39:08;;;;;;;7.73;7.03;;;;;;;33.12;39.42;99805.22;126612;1090;103377;-79
2021/07/27 11:42:01;;;;;;;8.03;7.23;;;;;;;32.96;39.32;99801.03;126705;1090;113975;-79
2021/07/27 11:44:50;;;;;;;8.33;7.53;;;;;;;32.76;39.41;99800.13;126789;1089;103135;-79
2021/07/27 11:47:44;;;;;;;7.53;6.57;;;;;;;32.74;38.48;99794.09;126540;1090;114244;-79
2021/07/27 11:50:35;;;;;;;7.23;6.53;;;;;;;32.62;38.67;99793.02;126659;1090;101862;-79
2021/07/27 11:53:24;;;;;;;7.33;6.63;;;;;;;32.60;38.51;99784.29;126494;1090;114212;-79
2021/07/27 11:56:14;;;;;;;7.03;6.33;;;;;;;32.52;38.69;99785.32;126763;1090;102941;-79
2021/07/27 11:59:04;;;;;;;7.27;6.57;;;;;;;32.53;38.01;99791.55;126520;1088;114092;-78
2021/07/27 12:01:52;;;;;;;7.37;6.57;;;;;;;32.38;36.40;99787.13;126630;1090;102878;-78
2021/07/27 12:04:40;;;;;;;7.37;6.10;;;;;;;32.20;36.85;99784.11;126531;1090;114209;-79
2021/07/27 12:07:30;;;;;;;11.63;5.97;;;;;;;32.06;36.99;99787.77;126773;1089;102864;-79
2021/07/27 12:10:18;;;;;;;7.87;5.20;;;;;;;31.95;37.46;99780.23;126595;1090;114441;-79
2021/07/27 12:13:06;;;;;;;5.57;5.07;;;;;;;31.79;36.80;99771.45;126635;1090;102869;-79
2021/07/27 12:15:54;;;;;;;5.30;4.80;;;;;;;31.69;37.41;99779.02;126649;1090;102900;-79
2021/07/27 12:18:41;;;;;;;4.90;4.40;;;;;;;31.57;36.74;99772.48;126689;1090;103217;-79
2021/07/27 12:21:29;;;;;;;5.03;4.40;;;;;;;31.43;37.74;99774.28;126669;1090;102886;-79
2021/07/27 12:24:17;;;;;;;5.10;4.60;;;;;;;31.42;37.60;99759.14;126691;1089;114406;-79
2021/07/27 12:27:05;;;;;;;5.33;4.83;;;;;;;31.34;38.39;99761.96;126807;1088;102975;-79
2021/07/27 12:29:53;;;;;;;5.67;5.17;;;;;;;31.46;39.39;99748.80;126560;1090;113859;-78
2021/07/27 12:32:40;;;;;;;5.17;4.63;;;;;;;31.54;39.00;99740.54;126650;1088;102894;-79
2021/07/27 12:35:29;;;;;;;6.20;5.60;;;;;;;31.48;39.01;99741.34;126553;1090;113890;-79
2021/07/27 12:38:18;;;;;;;7.00;6.23;;;;;;;31.41;39.40;99738.58;126688;1089;102675;-79
2021/07/27 12:41:05;;;;;;;6.50;5.90;;;;;;;31.38;39.45;99736.28;126713;1089;114122;-79
2021/07/27 12:43:53;;;;;;;5.97;5.43;;;;;;;31.33;39.33;99733.34;126795;1089;102983;-79
2021/07/27 12:46:40;;;;;;;6.07;5.43;;;;;;;31.38;39.26;99732.75;126659;1089;114323;-79
2021/07/27 12:49:28;;;;;;;5.50;4.90;;;;;;;31.30;38.73;99736.44;126614;1090;103022;-80
2021/07/27 12:52:15;;;;;;;6.50;5.17;;;;;;;31.28;38.71;99729.59;126613;1089;103309;-78
2021/07/27 12:55:04;;;;;;;5.80;5.20;;;;;;;31.31;38.66;99735.41;126479;1089;113861;-78
2021/07/27 12:57:52;;;;;;;5.70;5.20;;;;;;;31.22;38.09;99734.70;126620;1089;102850;-79
2021/07/27 13:00:39;;;;;;;6.30;5.70;;;;;;;31.16;38.15;99727.38;126455;1090;114254;-79
2021/07/27 13:03:27;;;;;;;6.20;5.60;;;;;;;31.11;38.84;99726.31;126598;1090;102660;-79